Impacts METAR Board
IDs:

KPHX - Phoenix/Sky Harbor, AZ, US

Updated at: 1100 UTC 23 Jun 2018
Potential Impact None Slight Moderate High
Time 22/23Z 23/00Z 23/01Z 23/02Z 23/03Z 23/04Z 23/05Z 23/06Z 23/07Z 23/08Z 23/09Z 23/10Z 23/11Z
Temp110 109 110 108 105 102 100 98 97 95 92 90 86
Dewpt27 24 22 25 27 29 30 37 42 42 43 44 46
Altim29.66 29.64 29.62 29.62 29.61 29.63 29.65 29.66 29.66 29.66 29.67 29.68 29.68
VIS10 10 10 10 10 10 10 10 10 10 10 10 10
CIG-- -- -- -- -- -- -- -- -- -- -- -- --
CoverCLRCLRCLRCLRFEWFEWCLRCLRCLRCLRCLRCLRCLR
FltCatVFRVFRVFRVFRVFRVFRVFRVFRVFRVFRVFRVFRVFR
WX--------------------------
WDir2802903002702402502602602803003000
WSpd12 12 13 12 5 6 7 8 9 5 3 0 0
WGst18 20 -- -- -- -- -- -- -- -- -- -- --
Raw hourly METARs
KPHX 222251Z 28012G18KT 260V340 10SM CLR 43/M03 A2966 RMK AO2 SLP020 T04331028
KPHX 222351Z 29012G20KT 10SM CLR 43/M04 A2964 RMK AO2 SLP013 T04281044 10439 20378 56027
KPHX 230051Z 30013KT 10SM CLR 43/M06 A2962 RMK AO2 SLP008 T04331056
KPHX 230151Z 27012KT 10SM CLR 42/M04 A2962 RMK AO2 SLP005 T04221039 $
KPHX 230251Z COR 24005KT 10SM FEW210 41/M03 A2961 RMK AO2 SLP004 T04061028 56008 $
KPHX 230351Z 25006KT 10SM FEW210 39/M02 A2963 RMK AO2 SLP010 T03891017 $
KPHX 230451Z 26007KT 10SM CLR 38/M01 A2965 RMK AO2 SLP016 T03781011 $
KPHX 230551Z 26008KT 10SM CLR 37/03 A2966 RMK AO2 SLP018 T03670028 10439 20367 51014 $
KPHX 230651Z 28009KT 10SM CLR 36/06 A2966 RMK AO2 SLP020 T03610056 404390278 $
KPHX 230751Z 30005KT 10SM CLR 35/06 A2966 RMK AO2 SLP020 T03500056 $
KPHX 230851Z 03003KT 10SM CLR 33/06 A2967 RMK AO2 SLP023 T03330061 53005 $
KPHX 230951Z 00000KT 10SM CLR 32/07 A2968 RMK AO2 SLP026 T03220067 $
KPHX 231051Z 00000KT 10SM CLR 30/08 A2968 RMK AO2 SLP029 T03000078 $



Page loaded:  11:39 UTC  |   04:39 AM Pacific  |   05:39 AM Mountain  |   06:39 AM Central  |   07:39 AM Eastern

 

ADVISORIES

FORECASTS

FORECASTS

OBSERVATIONS

USER TOOLS

ABOUT US